createdAt,value
2019-02-16T00:00:21.735Z,6.10
2019-02-16T00:02:50.120Z,6.10
2019-02-16T00:05:18.556Z,5.90
2019-02-16T00:07:47.064Z,5.90
2019-02-16T00:10:15.500Z,6.20
2019-02-16T00:12:43.943Z,6.20
2019-02-16T00:15:12.390Z,6.20
2019-02-16T00:17:40.840Z,6.20
2019-02-16T00:20:09.623Z,6.10
2019-02-16T00:22:38.080Z,6.00
2019-02-16T00:25:06.584Z,5.80
2019-02-16T00:27:35.016Z,6.00
2019-02-16T00:30:04.217Z,6.00
2019-02-16T00:32:32.706Z,6.00
2019-02-16T00:35:01.145Z,6.00
2019-02-16T00:37:29.563Z,6.20
2019-02-16T00:39:58.025Z,6.30
2019-02-16T00:42:26.461Z,6.10
2019-02-16T00:44:54.945Z,6.70
2019-02-16T00:47:24.462Z,6.10
2019-02-16T00:49:52.869Z,5.30
2019-02-16T00:52:21.723Z,4.80
2019-02-16T00:54:50.127Z,4.40
2019-02-16T00:57:18.557Z,4.30
2019-02-16T00:59:47.015Z,4.10
2019-02-16T01:02:15.434Z,4.00
2019-02-16T01:04:43.871Z,3.90
2019-02-16T01:07:12.359Z,3.90
2019-02-16T01:09:40.792Z,3.90
2019-02-16T01:12:09.361Z,3.80
2019-02-16T01:14:37.802Z,3.70
2019-02-16T01:17:06.280Z,3.70
2019-02-16T01:19:34.740Z,3.60
2019-02-16T01:22:03.160Z,3.70
2019-02-16T01:24:31.565Z,3.60
2019-02-16T01:27:00.009Z,3.60
2019-02-16T01:29:28.552Z,3.50
2019-02-16T01:31:56.976Z,3.40
2019-02-16T01:34:25.381Z,3.50
2019-02-16T01:36:53.849Z,3.50
2019-02-16T01:39:22.259Z,3.50
2019-02-16T01:41:50.708Z,3.40
2019-02-16T01:44:19.125Z,3.40
2019-02-16T01:46:47.543Z,3.30
2019-02-16T01:49:15.986Z,3.30
2019-02-16T01:51:44.420Z,3.40
2019-02-16T01:54:12.828Z,3.20
2019-02-16T01:56:41.248Z,3.30
2019-02-16T01:59:09.694Z,3.20
2019-02-16T02:01:38.149Z,3.30
2019-02-16T02:04:06.625Z,3.30
2019-02-16T02:06:35.141Z,3.20
2019-02-16T02:09:04.577Z,3.10
2019-02-16T02:11:33.078Z,3.10
2019-02-16T02:14:01.494Z,3.00
2019-02-16T02:16:29.943Z,3.00
2019-02-16T02:18:58.366Z,3.00
2019-02-16T02:21:26.778Z,3.10
2019-02-16T02:23:56.132Z,3.00
2019-02-16T02:26:24.587Z,3.00
2019-02-16T02:28:53.043Z,3.00
2019-02-16T02:31:21.449Z,2.90
2019-02-16T02:33:49.889Z,2.80
2019-02-16T02:36:18.298Z,2.90
2019-02-16T02:38:46.705Z,2.90
2019-02-16T02:41:15.241Z,2.90
2019-02-16T02:43:44.140Z,2.90
2019-02-16T02:46:12.559Z,2.80
2019-02-16T02:48:40.966Z,2.80
2019-02-16T02:51:09.409Z,2.80
2019-02-16T02:53:37.905Z,2.70
2019-02-16T02:56:09.034Z,2.70
2019-02-16T02:58:37.476Z,2.60
2019-02-16T03:01:05.891Z,2.70
2019-02-16T03:03:34.301Z,2.60
2019-02-16T03:06:02.751Z,2.70
2019-02-16T03:08:31.193Z,2.70
2019-02-16T03:10:59.627Z,2.60
2019-02-16T03:13:28.057Z,2.50
2019-02-16T03:15:56.819Z,2.50
2019-02-16T03:18:25.311Z,2.50
2019-02-16T03:20:53.727Z,2.50
2019-02-16T03:23:22.240Z,2.50
2019-02-16T03:26:11.422Z,2.50
2019-02-16T03:28:54.838Z,2.40
2019-02-16T03:31:40.939Z,2.40
2019-02-16T03:34:15.378Z,2.40
2019-02-16T03:37:13.826Z,2.30
2019-02-16T03:39:43.872Z,2.40
2019-02-16T03:42:12.277Z,2.90
2019-02-16T03:44:40.698Z,3.00
2019-02-16T03:47:09.132Z,3.10
2019-02-16T03:49:37.540Z,3.00
2019-02-16T03:52:13.438Z,3.00
2019-02-16T03:54:36.112Z,2.90
2019-02-16T03:57:05.898Z,2.90
2019-02-16T03:59:34.332Z,2.90
2019-02-16T04:02:02.780Z,2.80
2019-02-16T04:04:31.191Z,3.00
2019-02-16T04:06:59.618Z,2.90
2019-02-16T04:09:28.154Z,2.70
2019-02-16T04:11:56.658Z,2.70
2019-02-16T04:14:25.115Z,2.70
2019-02-16T04:16:53.592Z,2.60
2019-02-16T04:19:22.052Z,2.80
2019-02-16T04:21:50.486Z,2.90
2019-02-16T04:24:18.988Z,2.90
2019-02-16T04:26:47.447Z,2.90
2019-02-16T04:29:15.858Z,2.90
2019-02-16T04:31:44.277Z,3.10
2019-02-16T04:34:12.789Z,3.10
2019-02-16T04:36:41.207Z,3.10
2019-02-16T04:39:09.687Z,2.90
2019-02-16T04:41:38.122Z,2.80
2019-02-16T04:44:06.582Z,2.70
2019-02-16T04:46:34.978Z,2.70
2019-02-16T04:49:03.399Z,2.90
2019-02-16T04:51:31.838Z,2.80
2019-02-16T04:54:00.271Z,2.80
2019-02-16T04:56:28.705Z,2.80
2019-02-16T04:58:57.141Z,2.70
2019-02-16T05:01:25.576Z,2.60
2019-02-16T05:03:54.010Z,2.70
2019-02-16T05:06:22.404Z,2.90
2019-02-16T05:08:50.860Z,2.70
2019-02-16T05:11:19.299Z,2.70
2019-02-16T05:13:48.757Z,2.70
2019-02-16T05:16:17.213Z,2.80
2019-02-16T05:18:45.654Z,2.60
2019-02-16T05:21:14.067Z,2.50
2019-02-16T05:23:42.498Z,2.60
2019-02-16T05:26:10.921Z,2.60
2019-02-16T05:28:39.471Z,2.60
2019-02-16T05:31:07.910Z,2.70
2019-02-16T05:33:36.339Z,2.60
2019-02-16T05:36:04.774Z,2.40
2019-02-16T05:38:33.215Z,2.50
2019-02-16T05:41:01.659Z,2.50
2019-02-16T05:43:30.111Z,2.40
2019-02-16T05:45:58.559Z,2.50
2019-02-16T05:48:26.989Z,2.60
2019-02-16T05:50:55.420Z,2.60
2019-02-16T05:53:23.856Z,2.50
2019-02-16T05:55:52.289Z,2.60
2019-02-16T05:58:20.726Z,2.50
2019-02-16T06:00:49.131Z,2.50
2019-02-16T06:03:17.705Z,2.30
2019-02-16T06:05:46.134Z,2.20
2019-02-16T06:08:14.605Z,2.30
2019-02-16T06:10:43.009Z,2.40
2019-02-16T06:13:11.440Z,2.40
2019-02-16T06:15:39.859Z,2.30
2019-02-16T06:18:08.331Z,2.40
2019-02-16T06:20:36.766Z,2.40
2019-02-16T06:23:05.197Z,2.20
2019-02-16T06:25:34.183Z,2.20
2019-02-16T06:28:02.603Z,2.30
2019-02-16T06:30:31.094Z,2.50
2019-02-16T06:32:59.693Z,2.40
2019-02-16T06:35:29.994Z,2.60
2019-02-16T06:37:58.439Z,2.60
2019-02-16T06:40:26.874Z,2.40
2019-02-16T06:42:55.315Z,2.60
2019-02-16T06:45:23.754Z,2.50
2019-02-16T06:47:53.962Z,2.40
2019-02-16T06:50:22.449Z,2.40
2019-02-16T06:53:13.348Z,2.40
2019-02-16T06:55:28.096Z,2.70
2019-02-16T06:57:56.643Z,2.70
2019-02-16T07:00:33.783Z,2.60
2019-02-16T07:03:02.228Z,2.40
2019-02-16T07:05:30.642Z,2.70
2019-02-16T07:07:59.084Z,2.90
2019-02-16T07:10:27.494Z,3.00
2019-02-16T07:12:56.094Z,3.00
2019-02-16T07:15:24.542Z,3.10
2019-02-16T07:17:57.048Z,2.90
2019-02-16T07:20:25.477Z,3.10
2019-02-16T07:22:53.916Z,3.20
2019-02-16T07:25:22.331Z,3.40
2019-02-16T07:27:50.774Z,3.30
2019-02-16T07:30:19.208Z,3.10
2019-02-16T07:32:47.642Z,3.10
2019-02-16T07:35:16.076Z,3.20
2019-02-16T07:37:44.521Z,3.40
2019-02-16T07:40:12.944Z,3.20
2019-02-16T07:42:48.900Z,3.10
2019-02-16T07:45:38.214Z,3.20
2019-02-16T07:48:16.788Z,3.30
2019-02-16T07:50:49.548Z,3.50
2019-02-16T07:53:36.250Z,3.70
2019-02-16T07:56:18.361Z,3.90
2019-02-16T07:58:53.896Z,3.70
2019-02-16T08:01:26.903Z,3.70
2019-02-16T08:03:56.988Z,3.90
2019-02-16T08:06:27.088Z,3.90
2019-02-16T08:09:13.377Z,3.90
2019-02-16T08:11:59.688Z,3.90
2019-02-16T08:14:35.621Z,4.00
2019-02-16T08:17:05.674Z,4.20
2019-02-16T08:19:38.729Z,4.30
2019-02-16T08:22:11.572Z,4.40
2019-02-16T08:24:53.608Z,4.50
2019-02-16T08:27:29.288Z,4.70
2019-02-16T08:29:59.368Z,4.70
2019-02-16T08:32:47.544Z,4.80
2019-02-16T08:35:26.451Z,4.80
2019-02-16T08:37:59.373Z,4.90
2019-02-16T08:40:32.398Z,5.00
2019-02-16T08:43:04.967Z,5.00
2019-02-16T08:45:37.718Z,5.20
2019-02-16T08:48:07.777Z,5.30
2019-02-16T08:50:37.882Z,5.20
2019-02-16T08:53:10.676Z,5.40
2019-02-16T08:55:40.760Z,5.50
2019-02-16T08:58:10.814Z,5.40
2019-02-16T09:00:43.644Z,5.50
2019-02-16T09:03:30.136Z,5.60
2019-02-16T09:06:02.645Z,5.80
2019-02-16T09:08:44.781Z,5.90
2019-02-16T09:11:23.729Z,6.00
2019-02-16T09:13:59.884Z,6.10
2019-02-16T09:16:29.966Z,6.20
2019-02-16T09:19:18.160Z,6.30
2019-02-16T09:21:48.207Z,6.30
2019-02-16T09:24:36.285Z,6.50
2019-02-16T09:27:15.222Z,6.70
2019-02-16T09:29:45.415Z,6.80
2019-02-16T09:32:19.735Z,6.90
2019-02-16T09:35:05.930Z,7.00
2019-02-16T09:37:50.993Z,7.10
2019-02-16T09:40:21.135Z,7.10
2019-02-16T09:42:51.215Z,7.30
2019-02-16T09:45:23.965Z,7.50
2019-02-16T09:47:56.769Z,7.60
2019-02-16T09:50:32.801Z,7.70
2019-02-16T09:53:02.879Z,7.80
2019-02-16T09:55:38.780Z,7.90
2019-02-16T09:58:14.932Z,8.30
2019-02-16T10:00:56.625Z,8.50
2019-02-16T10:03:33.066Z,8.40
2019-02-16T10:06:09.305Z,8.30
2019-02-16T10:08:56.242Z,8.50
2019-02-16T10:11:30.316Z,8.70
2019-02-16T10:14:06.789Z,8.70
2019-02-16T10:16:55.947Z,8.70
2019-02-16T10:19:30.489Z,8.90
2019-02-16T10:22:18.819Z,8.90
2019-02-16T10:24:51.391Z,9.00
2019-02-16T10:27:26.335Z,9.20
2019-02-16T10:29:59.618Z,9.30
2019-02-16T10:32:48.371Z,9.40
2019-02-16T10:35:24.597Z,9.30
2019-02-16T10:37:57.500Z,9.50
2019-02-16T10:40:49.977Z,9.70
2019-02-16T10:43:34.294Z,9.80
2019-02-16T10:46:04.400Z,9.80
2019-02-16T10:48:52.363Z,10.00
2019-02-16T10:51:22.450Z,10.20
2019-02-16T10:54:01.235Z,10.20
2019-02-16T10:56:40.456Z,10.80
2019-02-16T10:59:28.556Z,10.80
2019-02-16T11:02:10.656Z,10.60
2019-02-16T11:04:43.278Z,10.60
2019-02-16T11:07:13.368Z,10.50
2019-02-16T11:09:43.430Z,10.60
2019-02-16T11:12:31.590Z,10.70
2019-02-16T11:15:01.325Z,10.90
2019-02-16T11:17:31.400Z,11.10
2019-02-16T11:20:01.483Z,11.00
2019-02-16T11:22:37.438Z,11.10
2019-02-16T11:25:19.876Z,11.10
2019-02-16T11:27:49.958Z,11.00
2019-02-16T11:30:23.017Z,11.00
2019-02-16T11:32:58.597Z,11.20
2019-02-16T11:35:31.586Z,11.40
2019-02-16T11:38:10.137Z,11.70
2019-02-16T11:40:40.198Z,11.80
2019-02-16T11:43:16.256Z,11.80
2019-02-16T11:45:46.336Z,11.90
2019-02-16T11:48:34.115Z,12.00
2019-02-16T11:51:09.963Z,12.00
2019-02-16T11:53:40.073Z,12.20
2019-02-16T11:56:13.215Z,12.20
2019-02-16T11:58:43.302Z,12.40
2019-02-16T12:01:16.320Z,12.40
2019-02-16T12:03:55.195Z,12.50
2019-02-16T12:06:31.244Z,12.60
2019-02-16T12:09:04.058Z,12.60
2019-02-16T12:11:50.388Z,12.70
2019-02-16T12:14:20.491Z,12.60
2019-02-16T12:16:54.017Z,12.50
2019-02-16T12:19:26.780Z,12.50
2019-02-16T12:21:59.561Z,12.70
2019-02-16T12:24:35.488Z,12.80
2019-02-16T12:27:05.529Z,12.90
2019-02-16T12:29:41.060Z,13.00
2019-02-16T12:32:11.155Z,13.10
2019-02-16T12:34:47.136Z,13.20
2019-02-16T12:37:19.975Z,13.20
2019-02-16T12:40:07.925Z,13.30
2019-02-16T12:42:55.803Z,13.20
2019-02-16T12:45:31.811Z,13.20
2019-02-16T12:48:21.227Z,13.20
2019-02-16T12:51:04.505Z,13.10
2019-02-16T12:53:44.291Z,13.30
2019-02-16T12:56:27.769Z,13.50
2019-02-16T12:59:06.839Z,13.50
2019-02-16T13:01:53.562Z,13.60
2019-02-16T13:04:41.525Z,13.50
2019-02-16T13:07:14.414Z,13.70
2019-02-16T13:09:44.483Z,13.80
2019-02-16T13:12:17.086Z,13.90
2019-02-16T13:14:57.917Z,13.90
2019-02-16T13:17:30.575Z,14.00
2019-02-16T13:20:00.682Z,13.90
2019-02-16T13:22:30.788Z,14.00
2019-02-16T13:25:03.949Z,14.00
2019-02-16T13:27:40.084Z,14.10
2019-02-16T13:30:10.607Z,14.20
2019-02-16T13:33:08.088Z,14.10
2019-02-16T13:35:45.844Z,14.10
2019-02-16T13:38:15.900Z,14.40
2019-02-16T13:40:53.344Z,14.50
2019-02-16T13:43:23.465Z,14.40
2019-02-16T13:46:02.319Z,14.40
2019-02-16T13:48:32.460Z,14.20
2019-02-16T13:51:03.368Z,13.90
2019-02-16T13:53:33.544Z,14.20
2019-02-16T13:56:12.394Z,14.40
2019-02-16T13:58:45.243Z,14.50
2019-02-16T14:01:18.029Z,14.50
2019-02-16T14:04:00.113Z,14.50
2019-02-16T14:06:30.218Z,14.60
2019-02-16T14:09:03.074Z,14.60
2019-02-16T14:11:33.171Z,14.60
2019-02-16T14:14:05.980Z,14.30
2019-02-16T14:16:47.602Z,14.40
2019-02-16T14:19:16.012Z,14.30
2019-02-16T14:21:44.474Z,14.40
2019-02-16T14:24:18.966Z,14.50
2019-02-16T14:26:51.500Z,14.40
2019-02-16T14:29:24.126Z,14.40
2019-02-16T14:31:52.628Z,14.40
2019-02-16T14:34:21.180Z,14.40
2019-02-16T14:36:51.296Z,14.30
2019-02-16T14:39:26.142Z,14.10
2019-02-16T14:42:03.774Z,14.20
2019-02-16T14:44:33.359Z,14.50
2019-02-16T14:47:07.064Z,14.20
2019-02-16T14:49:35.487Z,14.10
2019-02-16T14:52:03.980Z,14.20
2019-02-16T14:54:36.197Z,14.30
2019-02-16T14:57:06.974Z,14.40
2019-02-16T14:59:35.618Z,14.40
2019-02-16T15:02:04.056Z,14.20
2019-02-16T15:04:32.680Z,14.30
2019-02-16T15:07:01.142Z,14.20
2019-02-16T15:09:29.591Z,14.10
2019-02-16T15:11:58.034Z,14.10
2019-02-16T15:14:26.545Z,14.00
2019-02-16T15:16:55.118Z,14.10
2019-02-16T15:19:25.290Z,14.20
2019-02-16T15:21:53.752Z,14.30
2019-02-16T15:24:22.287Z,14.10
2019-02-16T15:26:50.701Z,14.00
2019-02-16T15:29:19.144Z,13.90
2019-02-16T15:31:47.694Z,14.00
2019-02-16T15:34:16.180Z,14.10
2019-02-16T15:36:44.634Z,14.00
2019-02-16T15:39:13.080Z,13.80
2019-02-16T15:41:41.557Z,14.00
2019-02-16T15:44:10.814Z,14.00
2019-02-16T15:46:39.317Z,14.00
2019-02-16T15:49:07.983Z,13.70
2019-02-16T15:51:36.473Z,13.60
2019-02-16T15:54:04.995Z,13.50
2019-02-16T15:56:33.839Z,13.60
2019-02-16T15:59:02.376Z,13.70
2019-02-16T16:01:30.832Z,13.60
2019-02-16T16:04:01.044Z,13.40
2019-02-16T16:06:29.533Z,13.30
2019-02-16T16:09:02.487Z,13.20
2019-02-16T16:11:32.557Z,13.10
2019-02-16T16:14:06.594Z,13.10
2019-02-16T16:16:45.529Z,13.10
2019-02-16T16:19:15.622Z,13.20
2019-02-16T16:22:03.601Z,13.10
2019-02-16T16:24:42.521Z,12.90
2019-02-16T16:27:15.481Z,12.60
2019-02-16T16:29:46.357Z,12.60
2019-02-16T16:32:17.701Z,12.40
2019-02-16T16:35:02.736Z,12.40
2019-02-16T16:37:32.835Z,12.20
2019-02-16T16:40:05.601Z,11.90
2019-02-16T16:42:38.548Z,11.70
2019-02-16T16:45:09.405Z,11.60
2019-02-16T16:47:39.499Z,11.60
2019-02-16T16:50:27.633Z,11.40
2019-02-16T16:52:57.788Z,11.20
2019-02-16T16:55:27.950Z,11.00
2019-02-16T16:58:03.676Z,10.80
2019-02-16T17:00:45.934Z,10.50
2019-02-16T17:03:19.039Z,10.30
2019-02-16T17:06:00.688Z,10.20
2019-02-16T17:08:36.734Z,10.20
2019-02-16T17:11:06.854Z,10.00
2019-02-16T17:13:39.352Z,9.90
2019-02-16T17:16:09.436Z,9.90
2019-02-16T17:18:48.360Z,9.80
2019-02-16T17:21:18.453Z,9.70
2019-02-16T17:23:57.254Z,9.50
2019-02-16T17:26:27.387Z,9.30
2019-02-16T17:29:00.020Z,9.30
2019-02-16T17:31:47.987Z,9.20
2019-02-16T17:34:26.834Z,9.20
2019-02-16T17:37:14.931Z,9.10
2019-02-16T17:39:45.002Z,9.00
2019-02-16T17:42:17.637Z,8.90
2019-02-16T17:44:47.718Z,8.80
2019-02-16T17:47:26.618Z,8.80
2019-02-16T17:50:05.496Z,8.80
2019-02-16T17:52:35.581Z,8.70
2019-02-16T17:55:21.908Z,8.70
2019-02-16T17:57:51.957Z,8.60
2019-02-16T18:00:38.048Z,8.60
2019-02-16T18:03:19.881Z,8.50
2019-02-16T18:06:05.713Z,8.50
2019-02-16T18:08:41.753Z,8.40
2019-02-16T18:11:26.923Z,8.30
2019-02-16T18:14:12.900Z,8.20
2019-02-16T18:16:42.997Z,8.00
2019-02-16T18:19:15.823Z,8.10
2019-02-16T18:21:46.481Z,8.00
2019-02-16T18:24:31.516Z,8.00
2019-02-16T18:27:01.605Z,8.10
2019-02-16T18:29:37.117Z,8.10
2019-02-16T18:32:07.346Z,8.10
2019-02-16T18:34:55.537Z,7.90
2019-02-16T18:37:25.636Z,7.90
2019-02-16T18:39:55.686Z,8.00
2019-02-16T18:42:34.637Z,7.90
2019-02-16T18:45:07.450Z,7.90
2019-02-16T18:47:40.289Z,7.70
2019-02-16T18:50:28.828Z,7.60
2019-02-16T18:53:04.820Z,7.50
2019-02-16T18:55:44.108Z,7.60
2019-02-16T18:58:32.169Z,7.50
2019-02-16T19:01:08.040Z,7.60
2019-02-16T19:03:40.762Z,7.70
2019-02-16T19:06:19.726Z,7.60
2019-02-16T19:09:01.678Z,7.60
2019-02-16T19:11:37.580Z,7.50
2019-02-16T19:14:13.231Z,7.50
2019-02-16T19:16:52.198Z,7.50
2019-02-16T19:19:22.250Z,7.40
2019-02-16T19:21:57.996Z,7.40
2019-02-16T19:24:31.052Z,7.30
2019-02-16T19:27:01.112Z,7.20
2019-02-16T19:29:39.844Z,7.20
2019-02-16T19:32:09.900Z,7.20
2019-02-16T19:34:42.978Z,7.20
2019-02-16T19:37:15.993Z,7.20
2019-02-16T19:39:47.016Z,7.10
2019-02-16T19:42:23.333Z,7.00
2019-02-16T19:45:09.240Z,7.00
2019-02-16T19:47:55.644Z,7.00
2019-02-16T19:50:34.394Z,7.00
2019-02-16T19:53:19.452Z,6.90
2019-02-16T19:55:49.566Z,6.90
2019-02-16T19:58:22.300Z,6.80
2019-02-16T20:00:57.862Z,6.80
2019-02-16T20:03:27.954Z,6.80
2019-02-16T20:06:03.580Z,6.80
2019-02-16T20:08:50.144Z,6.80
2019-02-16T20:11:37.879Z,6.70
2019-02-16T20:14:10.644Z,6.60
2019-02-16T20:16:46.669Z,6.60
2019-02-16T20:19:22.744Z,6.60
2019-02-16T20:21:58.631Z,6.60
2019-02-16T20:24:28.780Z,6.60
2019-02-16T20:27:01.817Z,6.50
2019-02-16T20:29:31.896Z,6.50
2019-02-16T20:32:10.445Z,6.30
2019-02-16T20:34:46.272Z,6.30
2019-02-16T20:37:22.098Z,6.20
2019-02-16T20:42:39.735Z,6.20
2019-02-16T20:45:22.095Z,6.20
2019-02-16T20:48:04.793Z,6.20
2019-02-16T20:50:47.324Z,6.20
2019-02-16T20:53:29.890Z,6.10
2019-02-16T20:56:30.153Z,6.00
2019-02-16T20:59:11.985Z,6.00
2019-02-16T21:02:11.750Z,5.90
2019-02-16T21:05:11.504Z,6.10
2019-02-16T21:08:11.460Z,6.00
2019-02-16T21:10:56.664Z,5.90
2019-02-16T21:13:39.541Z,5.80
2019-02-16T21:16:39.252Z,5.80
2019-02-16T21:19:21.172Z,5.80
2019-02-16T21:22:03.236Z,5.70
2019-02-16T21:24:45.856Z,5.70
2019-02-16T21:27:46.182Z,5.60
2019-02-16T21:30:31.664Z,5.60
2019-02-16T21:33:17.050Z,5.60
2019-02-16T21:39:24.207Z,5.50
2019-02-16T21:45:13.503Z,5.40
2019-02-16T21:51:21.082Z,5.30
2019-02-16T22:00:31.968Z,5.20
2019-02-16T22:03:38.980Z,5.10
2019-02-16T22:06:45.979Z,5.10
2019-02-16T22:09:52.979Z,5.10
2019-02-16T22:15:49.352Z,4.90
2019-02-16T22:21:45.664Z,4.90
2019-02-16T22:24:33.399Z,4.90
2019-02-16T22:27:21.208Z,4.90
2019-02-16T22:30:29.676Z,4.90
2019-02-16T22:39:09.633Z,4.80
2019-02-16T22:45:25.178Z,4.70
2019-02-16T22:48:13.071Z,4.60
2019-02-16T22:50:53.975Z,4.60
2019-02-16T22:53:34.701Z,4.50
2019-02-16T22:56:15.784Z,4.60
2019-02-16T22:58:56.328Z,4.60
2019-02-16T23:01:37.169Z,4.60
2019-02-16T23:04:18.112Z,4.60
2019-02-16T23:06:58.591Z,4.50
2019-02-16T23:09:39.192Z,4.40
2019-02-16T23:12:19.676Z,4.40
2019-02-16T23:15:00.372Z,4.40
2019-02-16T23:17:41.554Z,4.30
2019-02-16T23:20:22.618Z,4.30
2019-02-16T23:23:03.842Z,4.30
2019-02-16T23:25:44.236Z,4.20
2019-02-16T23:28:24.681Z,4.10
2019-02-16T23:31:05.400Z,4.20
2019-02-16T23:33:45.619Z,4.20
2019-02-16T23:36:26.525Z,4.20
2019-02-16T23:39:07.276Z,4.20
2019-02-16T23:41:47.855Z,4.20
2019-02-16T23:44:28.746Z,4.20
2019-02-16T23:47:09.423Z,4.10
2019-02-16T23:49:51.865Z,4.10
2019-02-16T23:52:32.820Z,4.10
2019-02-16T23:55:21.054Z,4.10
2019-02-16T23:58:08.821Z,4.10
